createdAt,value
2017-10-28T00:00:16.990Z,930.18
2017-10-28T00:00:45.093Z,930.18
2017-10-28T00:01:13.135Z,930.13
2017-10-28T00:01:40.947Z,930.09
2017-10-28T00:02:08.981Z,930.08
2017-10-28T00:02:37.102Z,930.06
2017-10-28T00:03:05.111Z,929.99
2017-10-28T00:03:33.037Z,929.99
2017-10-28T00:04:01.055Z,929.95
2017-10-28T00:04:28.979Z,929.91
2017-10-28T00:04:57.007Z,929.88
2017-10-28T00:05:25.261Z,929.85
2017-10-28T00:05:53.278Z,929.91
2017-10-28T00:06:21.394Z,929.88
2017-10-28T00:06:49.213Z,929.92
2017-10-28T00:07:17.213Z,929.93
2017-10-28T00:07:45.326Z,929.96
2017-10-28T00:08:13.469Z,929.98
2017-10-28T00:08:41.380Z,930.01
2017-10-28T00:09:09.408Z,929.99
2017-10-28T00:09:37.474Z,930.01
2017-10-28T00:10:05.596Z,930.03
2017-10-28T00:10:33.739Z,930.07
2017-10-28T00:11:01.772Z,930.07
2017-10-28T00:11:29.901Z,930.06
2017-10-28T00:11:57.992Z,930.14
2017-10-28T00:12:25.996Z,930.12
2017-10-28T00:12:53.998Z,930.17
2017-10-28T00:13:22.020Z,930.21
2017-10-28T00:13:49.858Z,930.17
2017-10-28T00:14:17.691Z,930.16
2017-10-28T00:14:45.747Z,930.12
2017-10-28T00:15:13.671Z,930.14
2017-10-28T00:15:41.802Z,930.18
2017-10-28T00:16:09.727Z,930.19
2017-10-28T00:16:37.839Z,930.22
2017-10-28T00:17:05.882Z,930.23
2017-10-28T00:17:33.924Z,930.21
2017-10-28T00:18:01.845Z,930.18
2017-10-28T00:18:29.896Z,930.17
2017-10-28T00:18:57.736Z,930.17
2017-10-28T00:19:25.857Z,930.14
2017-10-28T00:19:53.775Z,930.13
2017-10-28T00:20:21.895Z,930.09
2017-10-28T00:20:50.025Z,930.07
2017-10-28T00:21:18.134Z,930.04
2017-10-28T00:21:46.147Z,930.02
2017-10-28T00:22:14.272Z,930.01
2017-10-28T00:22:42.298Z,929.96
2017-10-28T00:23:10.328Z,929.92
2017-10-28T00:23:38.249Z,929.99
2017-10-28T00:24:06.273Z,929.94
2017-10-28T00:24:34.165Z,929.91
2017-10-28T00:25:02.112Z,929.9
2017-10-28T00:25:29.761Z,929.87
2017-10-28T00:25:57.710Z,929.86
2017-10-28T00:26:25.525Z,929.82
2017-10-28T00:26:53.335Z,929.8
2017-10-28T00:27:21.377Z,929.77
2017-10-28T00:27:49.528Z,929.73
2017-10-28T00:28:17.645Z,929.73
2017-10-28T00:28:45.553Z,929.7
2017-10-28T00:29:13.504Z,929.68
2017-10-28T00:29:41.618Z,929.67
2017-10-28T00:30:09.420Z,929.65
2017-10-28T00:30:37.540Z,929.62
2017-10-28T00:31:05.642Z,929.66
2017-10-28T00:31:33.566Z,929.65
2017-10-28T00:32:01.601Z,929.61
2017-10-28T00:32:29.612Z,929.61
2017-10-28T00:32:57.724Z,929.54
2017-10-28T00:33:25.740Z,929.58
2017-10-28T00:33:53.741Z,929.59
2017-10-28T00:34:21.863Z,929.59
2017-10-28T00:34:49.880Z,929.58
2017-10-28T00:35:17.983Z,929.57
2017-10-28T00:35:46.781Z,929.58
2017-10-28T00:36:14.799Z,929.55
2017-10-28T00:36:42.722Z,929.53
2017-10-28T00:37:10.644Z,929.52
2017-10-28T00:37:38.657Z,929.52
2017-10-28T00:38:06.564Z,929.46
2017-10-28T00:38:34.564Z,929.45
2017-10-28T00:39:02.570Z,929.42
2017-10-28T00:39:30.596Z,929.4
2017-10-28T00:39:58.607Z,929.36
2017-10-28T00:40:26.632Z,929.29
2017-10-28T00:40:54.686Z,929.27
2017-10-28T00:41:22.677Z,929.27
2017-10-28T00:41:50.684Z,929.22
2017-10-28T00:42:18.677Z,929.25
2017-10-28T00:42:46.787Z,929.3
2017-10-28T00:43:14.820Z,929.27
2017-10-28T00:43:42.978Z,929.25
2017-10-28T00:44:11.130Z,929.19
2017-10-28T00:44:39.061Z,929.15
2017-10-28T00:45:06.951Z,929.16
2017-10-28T00:45:34.978Z,929.16
2017-10-28T00:46:03.108Z,929.13
2017-10-28T00:46:31.281Z,929.15
2017-10-28T00:46:59.317Z,929.12
2017-10-28T00:47:27.319Z,929.15
2017-10-28T00:47:55.455Z,929.09
2017-10-28T00:48:23.486Z,929.08
2017-10-28T00:48:51.502Z,929.08
2017-10-28T00:49:19.547Z,929.05
2017-10-28T00:49:47.664Z,929.06
2017-10-28T00:50:15.712Z,929
2017-10-28T00:50:43.941Z,928.99
2017-10-28T00:51:11.967Z,928.91
2017-10-28T00:51:40.077Z,928.87
2017-10-28T00:52:08.077Z,928.84
2017-10-28T00:52:36.016Z,928.84
2017-10-28T00:53:04.103Z,928.79
2017-10-28T00:53:32.307Z,928.79
2017-10-28T00:54:00.248Z,928.81
2017-10-28T00:54:29.131Z,928.78
2017-10-28T00:54:57.225Z,928.78
2017-10-28T00:55:25.257Z,928.77
2017-10-28T00:55:53.385Z,928.8
2017-10-28T00:56:21.298Z,928.79
2017-10-28T00:56:49.176Z,928.75
2017-10-28T00:57:17.300Z,928.7
2017-10-28T00:57:45.233Z,928.73
2017-10-28T00:58:13.160Z,928.7
2017-10-28T00:58:41.104Z,928.64
2017-10-28T00:59:09.009Z,928.63
2017-10-28T00:59:37.165Z,928.65
2017-10-28T01:00:05.177Z,928.63
2017-10-28T01:00:33.198Z,928.6
2017-10-28T01:01:01.212Z,928.57
2017-10-28T01:01:29.109Z,928.56
2017-10-28T01:01:57.144Z,928.53
2017-10-28T01:02:25.051Z,928.51
2017-10-28T01:02:53.153Z,928.48
2017-10-28T01:03:21.171Z,928.49
2017-10-28T01:03:49.305Z,928.51
2017-10-28T01:04:17.205Z,928.47
2017-10-28T01:04:45.023Z,928.46
2017-10-28T01:05:13.126Z,928.42
2017-10-28T01:05:41.143Z,928.44
2017-10-28T01:06:09.275Z,928.44
2017-10-28T01:06:37.192Z,928.42
2017-10-28T01:07:05.182Z,928.4
2017-10-28T01:07:33.293Z,928.37
2017-10-28T01:08:01.409Z,928.36
2017-10-28T01:08:29.535Z,928.34
2017-10-28T01:08:57.636Z,928.33
2017-10-28T01:09:25.773Z,928.31
2017-10-28T01:09:53.780Z,928.28
2017-10-28T01:10:21.880Z,928.31
2017-10-28T01:10:49.864Z,928.31
2017-10-28T01:11:17.768Z,928.3
2017-10-28T01:11:45.869Z,928.25
2017-10-28T01:12:13.906Z,928.23
2017-10-28T01:12:41.910Z,928.24
2017-10-28T01:13:09.717Z,928.23
2017-10-28T01:13:37.729Z,928.2
2017-10-28T01:14:05.844Z,928.16
2017-10-28T01:14:33.877Z,928.19
2017-10-28T01:15:01.973Z,928.17
2017-10-28T01:15:29.987Z,928.13
2017-10-28T01:15:58.025Z,928.11
2017-10-28T01:16:25.951Z,928.13
2017-10-28T01:16:53.983Z,928.09
2017-10-28T01:17:22.097Z,928.12
2017-10-28T01:17:50.109Z,928.13
2017-10-28T01:18:18.198Z,928.07
2017-10-28T01:18:46.317Z,928.03
2017-10-28T01:19:14.259Z,928.01
2017-10-28T01:19:42.144Z,928
2017-10-28T01:20:10.146Z,927.99
2017-10-28T01:20:38.070Z,927.92
2017-10-28T01:21:06.097Z,927.89
2017-10-28T01:21:33.911Z,927.9
2017-10-28T01:22:01.723Z,927.86
2017-10-28T01:22:29.842Z,927.8
2017-10-28T01:22:57.832Z,927.8
2017-10-28T01:23:25.828Z,927.78
2017-10-28T01:23:53.952Z,927.79
2017-10-28T01:24:21.783Z,927.79
2017-10-28T01:24:49.784Z,927.79
2017-10-28T01:25:17.801Z,927.8
2017-10-28T01:25:45.901Z,927.83
2017-10-28T01:26:14.026Z,927.83
2017-10-28T01:26:41.956Z,927.86
2017-10-28T01:27:10.077Z,927.85
2017-10-28T01:27:37.885Z,927.89
2017-10-28T01:28:05.687Z,927.9
2017-10-28T01:28:33.721Z,927.86
2017-10-28T01:29:01.741Z,927.85
2017-10-28T01:29:29.741Z,927.86
2017-10-28T01:29:57.764Z,927.86
2017-10-28T01:30:25.892Z,927.88
2017-10-28T01:30:54.018Z,927.89
2017-10-28T01:31:22.139Z,927.84
2017-10-28T01:31:50.060Z,927.88
2017-10-28T01:32:17.989Z,927.92
2017-10-28T01:32:46.105Z,927.88
2017-10-28T01:33:14.029Z,927.83
2017-10-28T01:33:42.171Z,927.85
2017-10-28T01:34:10.309Z,927.8
2017-10-28T01:34:38.461Z,927.77
2017-10-28T01:35:06.468Z,927.73
2017-10-28T01:35:34.372Z,927.67
2017-10-28T01:36:02.390Z,927.64
2017-10-28T01:36:30.313Z,927.62
2017-10-28T01:36:58.414Z,927.6
2017-10-28T01:37:26.526Z,927.56
2017-10-28T01:37:54.345Z,927.59
2017-10-28T01:38:22.436Z,927.51
2017-10-28T01:38:50.544Z,927.48
2017-10-28T01:39:18.684Z,927.43
2017-10-28T01:39:46.492Z,927.43
2017-10-28T01:40:14.536Z,927.42
2017-10-28T01:40:42.635Z,927.4
2017-10-28T01:41:10.653Z,927.38
2017-10-28T01:41:38.770Z,927.35
2017-10-28T01:42:06.783Z,927.34
2017-10-28T01:42:34.788Z,927.3
2017-10-28T01:43:02.931Z,927.24
2017-10-28T01:43:30.839Z,927.2
2017-10-28T01:43:58.950Z,927.22
2017-10-28T01:44:26.867Z,927.21
2017-10-28T01:44:54.896Z,927.14
2017-10-28T01:45:23.045Z,927.09
2017-10-28T01:45:51.152Z,927.06
2017-10-28T01:46:19.254Z,927.05
2017-10-28T01:46:47.290Z,927.02
2017-10-28T01:47:15.208Z,927.01
2017-10-28T01:47:43.310Z,926.99
2017-10-28T01:48:11.353Z,926.96
2017-10-28T01:48:39.149Z,926.96
2017-10-28T01:49:07.086Z,926.96
2017-10-28T01:49:35.193Z,927.02
2017-10-28T01:50:03.126Z,926.98
2017-10-28T01:50:31.172Z,927
2017-10-28T01:50:59.297Z,926.97
2017-10-28T01:51:27.309Z,926.94
2017-10-28T01:51:55.341Z,926.92
2017-10-28T01:52:23.375Z,926.94
2017-10-28T01:52:51.401Z,926.91
2017-10-28T01:53:19.515Z,927.02
2017-10-28T01:53:47.644Z,927.06
2017-10-28T01:54:15.559Z,927.07
2017-10-28T01:54:43.565Z,927.19
2017-10-28T01:55:11.688Z,927.26
2017-10-28T01:55:39.798Z,927.29
2017-10-28T01:56:07.920Z,927.28
2017-10-28T01:56:35.950Z,927.26
2017-10-28T01:57:03.867Z,927.28
2017-10-28T01:57:31.881Z,927.26
2017-10-28T01:57:59.990Z,927.25
2017-10-28T01:58:27.996Z,927.27
2017-10-28T01:58:55.987Z,927.31
2017-10-28T01:59:24.007Z,927.29
2017-10-28T01:59:51.818Z,927.3
2017-10-28T02:00:19.822Z,927.29
2017-10-28T02:00:47.742Z,927.26
2017-10-28T02:01:15.775Z,927.25
2017-10-28T02:01:43.895Z,927.17
2017-10-28T02:02:12.022Z,927.11
2017-10-28T02:02:40.136Z,927.04
2017-10-28T02:03:08.161Z,926.96
2017-10-28T02:03:36.233Z,926.89
2017-10-28T02:04:04.327Z,926.96
2017-10-28T02:04:32.427Z,926.89
2017-10-28T02:05:00.534Z,926.95
2017-10-28T02:05:28.551Z,927.01
2017-10-28T02:05:56.565Z,926.98
2017-10-28T02:06:24.598Z,927.07
2017-10-28T02:06:52.506Z,927.11
2017-10-28T02:07:20.515Z,927.13
2017-10-28T02:07:48.442Z,927.14
2017-10-28T02:08:16.476Z,927.1
2017-10-28T02:08:44.399Z,927
2017-10-28T02:09:12.531Z,926.91
2017-10-28T02:09:40.650Z,926.83
2017-10-28T02:10:08.549Z,926.58
2017-10-28T02:10:36.668Z,926.45
2017-10-28T02:11:04.698Z,926.39
2017-10-28T02:11:32.716Z,926.36
2017-10-28T02:12:00.744Z,926.36
2017-10-28T02:12:28.780Z,926.47
2017-10-28T02:12:56.689Z,926.57
2017-10-28T02:13:24.796Z,926.67
2017-10-28T02:13:52.925Z,926.75
2017-10-28T02:14:21.014Z,926.75
2017-10-28T02:14:49.128Z,926.81
2017-10-28T02:15:17.147Z,926.79
2017-10-28T02:15:45.251Z,926.88
2017-10-28T02:16:13.360Z,926.89
2017-10-28T02:16:41.502Z,926.95
2017-10-28T02:17:09.398Z,926.91
2017-10-28T02:17:37.398Z,926.83
2017-10-28T02:18:05.428Z,926.75
2017-10-28T02:18:33.466Z,926.69
2017-10-28T02:19:01.595Z,926.65
2017-10-28T02:19:29.612Z,926.58
2017-10-28T02:19:57.536Z,926.5
2017-10-28T02:20:25.565Z,926.48
2017-10-28T02:20:53.559Z,926.41
2017-10-28T02:21:21.360Z,926.38
2017-10-28T02:21:49.622Z,926.29
2017-10-28T02:22:17.650Z,926.33
2017-10-28T02:22:45.608Z,926.31
2017-10-28T02:23:13.736Z,926.31
2017-10-28T02:23:41.868Z,926.32
2017-10-28T02:24:09.795Z,926.32
2017-10-28T02:24:37.914Z,926.33
2017-10-28T02:25:05.942Z,926.26
2017-10-28T02:25:33.970Z,926.28
2017-10-28T02:26:01.890Z,926.2
2017-10-28T02:26:29.679Z,926.18
2017-10-28T02:26:57.497Z,926.12
2017-10-28T02:27:25.528Z,926.16
2017-10-28T02:27:53.552Z,926.15
2017-10-28T02:28:21.449Z,926.23
2017-10-28T02:28:49.448Z,926.25
2017-10-28T02:29:17.352Z,926.3
2017-10-28T02:29:45.378Z,926.4
2017-10-28T02:30:13.499Z,926.43
2017-10-28T02:30:41.596Z,926.46
2017-10-28T02:31:09.618Z,926.49
2017-10-28T02:31:37.746Z,926.54
2017-10-28T02:32:05.653Z,926.52
2017-10-28T02:32:33.371Z,926.51
2017-10-28T02:33:01.479Z,926.49
2017-10-28T02:33:29.508Z,926.48
2017-10-28T02:33:57.615Z,926.47
2017-10-28T02:34:25.613Z,926.5
2017-10-28T02:34:53.530Z,926.53
2017-10-28T02:35:21.526Z,926.62
2017-10-28T02:35:49.648Z,926.68
2017-10-28T02:36:17.598Z,926.69
2017-10-28T02:36:45.720Z,926.67
2017-10-28T02:37:13.835Z,926.74
2017-10-28T02:37:41.738Z,926.68
2017-10-28T02:38:09.878Z,926.64
2017-10-28T02:38:37.983Z,926.65
2017-10-28T02:39:05.899Z,926.71
2017-10-28T02:39:34.035Z,926.68
2017-10-28T02:40:02.071Z,926.66
2017-10-28T02:40:29.989Z,926.74
2017-10-28T02:40:57.910Z,926.72
2017-10-28T02:41:25.946Z,926.72
2017-10-28T02:41:53.949Z,926.74
2017-10-28T02:42:21.948Z,926.76
2017-10-28T02:42:51.080Z,926.69
2017-10-28T02:43:57.425Z,926.64
2017-10-28T02:44:25.346Z,926.56
2017-10-28T02:44:53.371Z,926.59
2017-10-28T02:45:21.452Z,926.58
2017-10-28T02:45:49.408Z,926.6
2017-10-28T02:46:17.527Z,926.6
2017-10-28T02:46:45.431Z,926.61
2017-10-28T02:47:13.272Z,926.65
2017-10-28T02:47:41.603Z,926.7
2017-10-28T02:48:09.612Z,926.74
2017-10-28T02:48:37.426Z,926.79
2017-10-28T02:49:05.513Z,926.85
2017-10-28T02:49:33.629Z,926.89
2017-10-28T02:50:01.650Z,926.95
2017-10-28T02:50:29.781Z,927
2017-10-28T02:50:57.816Z,927.02
2017-10-28T02:51:25.909Z,927.07
2017-10-28T02:51:54.002Z,927.01
2017-10-28T02:52:22.130Z,927.02
2017-10-28T02:52:50.238Z,926.97
2017-10-28T02:53:18.340Z,926.94
2017-10-28T02:53:46.462Z,926.92
2017-10-28T02:54:14.257Z,926.86
2017-10-28T02:54:42.362Z,926.87
2017-10-28T02:55:10.460Z,926.88
2017-10-28T02:55:38.564Z,926.91
2017-10-28T02:56:06.570Z,926.88
2017-10-28T02:56:34.681Z,926.94
2017-10-28T02:57:02.817Z,926.93
2017-10-28T02:57:30.794Z,926.92
2017-10-28T02:58:37.038Z,926.89
2017-10-28T02:59:04.983Z,926.87
2017-10-28T02:59:32.997Z,926.86
2017-10-28T03:00:01.009Z,926.87
2017-10-28T03:00:29.013Z,926.83
2017-10-28T03:00:57.139Z,926.87
2017-10-28T03:01:25.576Z,926.89
2017-10-28T03:01:53.609Z,926.92
2017-10-28T03:02:21.752Z,926.95
2017-10-28T03:02:49.879Z,927
2017-10-28T03:03:17.886Z,926.96
2017-10-28T03:04:18.640Z,926.99
2017-10-28T03:04:46.540Z,927.01
2017-10-28T03:05:14.555Z,927.01
2017-10-28T03:05:42.681Z,926.97
2017-10-28T03:06:10.696Z,926.95
2017-10-28T03:06:38.681Z,926.94
2017-10-28T03:07:06.711Z,926.94
2017-10-28T03:07:34.739Z,926.94
2017-10-28T03:08:02.771Z,926.84
2017-10-28T03:08:30.791Z,926.82
2017-10-28T03:08:58.780Z,926.83
2017-10-28T03:09:26.779Z,926.76
2017-10-28T03:09:54.894Z,926.74
2017-10-28T03:10:23.037Z,926.79
2017-10-28T03:10:51.129Z,926.81
2017-10-28T03:11:19.164Z,926.84
2017-10-28T03:11:47.287Z,926.79
2017-10-28T03:12:15.165Z,926.78
2017-10-28T03:12:43.079Z,926.76
2017-10-28T03:13:11.209Z,926.79
2017-10-28T03:13:39.221Z,926.73
2017-10-28T03:14:07.235Z,926.73
2017-10-28T03:14:35.254Z,926.74
2017-10-28T03:15:03.167Z,926.7
2017-10-28T03:15:31.178Z,926.7
2017-10-28T03:15:59.211Z,926.64
2017-10-28T03:16:27.337Z,926.65
2017-10-28T03:16:55.160Z,926.64
2017-10-28T03:17:23.209Z,926.66
2017-10-28T03:17:51.131Z,926.68
2017-10-28T03:18:19.249Z,926.7
2017-10-28T03:18:47.377Z,926.71
2017-10-28T03:19:15.489Z,926.73
2017-10-28T03:19:43.590Z,926.73
2017-10-28T03:20:11.600Z,926.74
2017-10-28T03:20:39.534Z,926.71
2017-10-28T03:21:07.647Z,926.77
2017-10-28T03:21:35.666Z,926.8
2017-10-28T03:22:03.669Z,926.79
2017-10-28T03:22:31.587Z,926.82
2017-10-28T03:22:59.417Z,926.81
2017-10-28T03:23:27.432Z,926.83
2017-10-28T03:23:55.435Z,926.82
2017-10-28T03:24:23.529Z,926.82
2017-10-28T03:24:51.621Z,926.84
2017-10-28T03:25:19.646Z,926.81
2017-10-28T03:25:47.757Z,926.86
2017-10-28T03:26:15.682Z,926.92
2017-10-28T03:26:43.686Z,926.98
2017-10-28T03:27:11.685Z,927.03
2017-10-28T03:27:39.816Z,927.07
2017-10-28T03:28:07.814Z,927.06
2017-10-28T03:28:35.841Z,927.05
2017-10-28T03:29:03.844Z,927.06
2017-10-28T03:29:31.957Z,926.97
2017-10-28T03:29:59.786Z,926.93
2017-10-28T03:30:27.897Z,926.89
2017-10-28T03:30:56.035Z,926.89
2017-10-28T03:31:24.121Z,926.9
2017-10-28T03:31:52.126Z,926.95
2017-10-28T03:32:20.239Z,926.93
2017-10-28T03:32:48.361Z,926.94
2017-10-28T03:33:16.470Z,926.97
2017-10-28T03:33:44.546Z,927
2017-10-28T03:34:12.662Z,926.97
2017-10-28T03:34:40.479Z,926.96
2017-10-28T03:35:08.406Z,926.94
2017-10-28T03:35:36.395Z,926.95
2017-10-28T03:36:04.297Z,926.9
2017-10-28T03:36:32.404Z,926.93
2017-10-28T03:37:00.417Z,926.9
2017-10-28T03:37:28.325Z,926.88
2017-10-28T03:37:56.247Z,926.86
2017-10-28T03:38:24.158Z,926.89
2017-10-28T03:38:52.161Z,926.91
2017-10-28T03:39:20.202Z,926.91
2017-10-28T03:39:48.214Z,926.93
2017-10-28T03:40:16.132Z,926.88
2017-10-28T03:40:44.144Z,926.87
2017-10-28T03:41:12.159Z,926.86
2017-10-28T03:41:40.269Z,926.82
2017-10-28T03:42:08.391Z,926.77
2017-10-28T03:42:36.419Z,926.77
2017-10-28T03:43:04.429Z,926.77
2017-10-28T03:43:32.355Z,926.79
2017-10-28T03:44:00.360Z,926.78
2017-10-28T03:44:28.487Z,926.71
2017-10-28T03:44:56.484Z,926.77
2017-10-28T03:45:24.620Z,926.78
2017-10-28T03:45:52.753Z,926.85
2017-10-28T03:46:21.660Z,926.81
2017-10-28T03:46:49.773Z,926.79
2017-10-28T03:47:17.816Z,926.75
2017-10-28T03:47:45.856Z,926.74
2017-10-28T03:48:13.959Z,926.73
2017-10-28T03:48:41.961Z,926.75
2017-10-28T03:49:09.955Z,926.73
2017-10-28T03:49:37.768Z,926.8
2017-10-28T03:50:05.881Z,926.84
2017-10-28T03:50:33.808Z,926.89
2017-10-28T03:51:01.918Z,926.84
2017-10-28T03:51:29.931Z,926.92
2017-10-28T03:51:58.059Z,926.93
2017-10-28T03:52:26.091Z,926.93
2017-10-28T03:52:54.120Z,926.92
2017-10-28T03:53:22.157Z,926.89
2017-10-28T03:53:50.268Z,926.91
2017-10-28T03:54:18.087Z,926.86
2017-10-28T03:54:46.119Z,926.84
2017-10-28T03:55:14.031Z,926.82
2017-10-28T03:55:42.055Z,926.8
2017-10-28T03:56:10.178Z,926.79
2017-10-28T03:56:38.306Z,926.84
2017-10-28T03:57:06.316Z,926.78
2017-10-28T03:57:34.235Z,926.79
2017-10-28T03:58:02.263Z,926.82
2017-10-28T03:58:30.308Z,926.87
2017-10-28T03:58:58.326Z,926.84
2017-10-28T03:59:26.317Z,926.86
2017-10-28T03:59:54.319Z,926.79
2017-10-28T04:00:22.319Z,926.79
2017-10-28T04:00:50.347Z,926.8
2017-10-28T04:01:18.477Z,926.81
2017-10-28T04:01:46.490Z,926.79
2017-10-28T04:02:14.423Z,926.77
2017-10-28T04:02:42.449Z,926.75
2017-10-28T04:03:10.542Z,926.79
2017-10-28T04:03:38.534Z,926.73
2017-10-28T04:04:06.657Z,926.76
2017-10-28T04:04:34.672Z,926.77
2017-10-28T04:05:02.607Z,926.79
2017-10-28T04:05:30.553Z,926.81
2017-10-28T04:05:58.681Z,926.76
2017-10-28T04:06:26.796Z,926.76
2017-10-28T04:06:54.815Z,926.78
2017-10-28T04:07:22.841Z,926.71
2017-10-28T04:07:50.910Z,926.76
2017-10-28T04:08:19.007Z,926.78
2017-10-28T04:08:47.019Z,926.74
2017-10-28T04:09:15.016Z,926.64
2017-10-28T04:09:42.946Z,926.68
2017-10-28T04:10:10.843Z,926.73
2017-10-28T04:10:38.814Z,926.71
2017-10-28T04:11:06.814Z,926.71
2017-10-28T04:11:34.934Z,926.69
2017-10-28T04:12:02.977Z,926.72
2017-10-28T04:12:30.879Z,926.73
2017-10-28T04:12:59.007Z,926.67
2017-10-28T04:13:27.037Z,926.64
2017-10-28T04:13:55.142Z,926.63
2017-10-28T04:14:22.828Z,926.64
2017-10-28T04:14:50.751Z,926.62
2017-10-28T04:15:18.565Z,926.64
2017-10-28T04:15:46.688Z,926.59
2017-10-28T04:16:14.803Z,926.55
2017-10-28T04:16:42.803Z,926.5
2017-10-28T04:17:10.926Z,926.52
2017-10-28T04:17:38.936Z,926.44
2017-10-28T04:18:06.944Z,926.46
2017-10-28T04:18:34.963Z,926.46
2017-10-28T04:19:02.741Z,926.44
2017-10-28T04:19:30.630Z,926.46
2017-10-28T04:19:58.754Z,926.44
2017-10-28T04:20:26.776Z,926.56
2017-10-28T04:20:54.795Z,926.38
2017-10-28T04:21:22.740Z,926.42
2017-10-28T04:21:50.765Z,926.39
2017-10-28T04:22:18.906Z,926.4
2017-10-28T04:22:47.060Z,926.41
2017-10-28T04:23:15.938Z,926.41
2017-10-28T04:23:44.038Z,926.4
2017-10-28T04:24:12.066Z,926.38
2017-10-28T04:24:40.073Z,926.41
2017-10-28T04:25:08.082Z,926.42
2017-10-28T04:25:36.002Z,926.42
2017-10-28T04:26:04.021Z,926.39
2017-10-28T04:26:32.146Z,926.42
2017-10-28T04:27:00.287Z,926.45
2017-10-28T04:27:28.424Z,926.51
2017-10-28T04:27:56.446Z,926.41
2017-10-28T04:28:24.452Z,926.41
2017-10-28T04:28:52.559Z,926.35
2017-10-28T04:29:20.572Z,926.31
2017-10-28T04:29:48.606Z,926.41
2017-10-28T04:30:16.631Z,926.48
2017-10-28T04:30:44.646Z,926.51
2017-10-28T04:31:12.780Z,926.42
2017-10-28T04:31:40.801Z,926.5
2017-10-28T04:32:08.724Z,926.49
2017-10-28T04:32:36.607Z,926.47
2017-10-28T04:33:04.699Z,926.49
2017-10-28T04:33:32.826Z,926.45
2017-10-28T04:34:00.960Z,926.46
2017-10-28T04:34:28.888Z,926.41
2017-10-28T04:34:56.713Z,926.44
2017-10-28T04:35:24.810Z,926.5
2017-10-28T04:35:52.868Z,926.49
2017-10-28T04:36:20.779Z,926.57
2017-10-28T04:36:48.790Z,926.46
2017-10-28T04:37:16.783Z,926.4
2017-10-28T04:37:44.823Z,926.42
2017-10-28T04:38:12.935Z,926.4
2017-10-28T04:38:40.858Z,926.29
2017-10-28T04:39:08.945Z,926.3
2017-10-28T04:39:37.065Z,926.33
2017-10-28T04:40:05.117Z,926.36
2017-10-28T04:40:33.242Z,926.38
2017-10-28T04:41:01.349Z,926.36
2017-10-28T04:41:29.464Z,926.31
2017-10-28T04:41:57.288Z,926.33
2017-10-28T04:42:25.311Z,926.31
2017-10-28T04:42:53.417Z,926.29
2017-10-28T04:43:21.438Z,926.29
2017-10-28T04:43:49.462Z,926.33
2017-10-28T04:44:17.597Z,926.33
2017-10-28T04:44:45.603Z,926.33
2017-10-28T04:45:13.596Z,926.35
2017-10-28T04:45:41.614Z,926.38
2017-10-28T04:46:09.547Z,926.39
2017-10-28T04:46:37.675Z,926.3
2017-10-28T04:47:05.673Z,926.26
2017-10-28T04:47:33.782Z,926.24
2017-10-28T04:48:01.807Z,926.24
2017-10-28T04:48:29.799Z,926.29
2017-10-28T04:48:57.927Z,926.26
2017-10-28T04:49:25.939Z,926.22
2017-10-28T04:49:53.952Z,926.24
2017-10-28T04:50:21.853Z,926.31
2017-10-28T04:50:49.890Z,926.19
2017-10-28T04:51:18.024Z,926.23
2017-10-28T04:51:46.008Z,926.17
2017-10-28T04:52:14.141Z,926.15
2017-10-28T04:52:42.258Z,926.14
2017-10-28T04:53:10.288Z,926.14
2017-10-28T04:53:38.298Z,926.21
2017-10-28T04:54:06.291Z,926.13
2017-10-28T04:54:34.395Z,926.15
2017-10-28T04:55:02.504Z,926.12
2017-10-28T04:55:30.642Z,926.12
2017-10-28T04:55:58.769Z,926.1
2017-10-28T04:56:26.702Z,926.14
2017-10-28T04:56:54.635Z,926.12
2017-10-28T04:57:22.668Z,926.05
2017-10-28T04:57:50.679Z,926.1
2017-10-28T04:58:18.781Z,926.14
2017-10-28T04:58:46.728Z,926.09
2017-10-28T04:59:14.764Z,926.01
2017-10-28T04:59:42.869Z,926.11
2017-10-28T05:00:10.898Z,926.04
2017-10-28T05:00:38.810Z,925.98
2017-10-28T05:01:06.737Z,926.03
2017-10-28T05:01:34.744Z,926.06
2017-10-28T05:02:02.745Z,926.01
2017-10-28T05:02:30.859Z,925.99
2017-10-28T05:02:58.872Z,926
2017-10-28T05:03:26.892Z,926.02
2017-10-28T05:03:55.017Z,925.97
2017-10-28T05:04:23.158Z,925.96
2017-10-28T05:04:51.058Z,925.95
2017-10-28T05:05:19.140Z,925.98
2017-10-28T05:05:46.937Z,925.95
2017-10-28T05:06:14.952Z,925.89
2017-10-28T05:06:42.981Z,925.91
2017-10-28T05:07:11.099Z,925.95
2017-10-28T05:07:39.216Z,925.95
2017-10-28T05:08:07.222Z,925.93
2017-10-28T05:08:35.326Z,925.94
2017-10-28T05:09:03.346Z,925.87
2017-10-28T05:09:31.340Z,925.8
2017-10-28T05:09:59.352Z,925.77
2017-10-28T05:10:27.393Z,925.82
2017-10-28T05:10:55.431Z,925.82
2017-10-28T05:11:23.545Z,925.76
2017-10-28T05:11:51.638Z,925.76
2017-10-28T05:12:19.641Z,925.8
2017-10-28T05:12:47.665Z,925.74
2017-10-28T05:13:15.677Z,925.7
2017-10-28T05:13:43.818Z,925.72
2017-10-28T05:14:11.953Z,925.63
2017-10-28T05:14:39.773Z,925.59
2017-10-28T05:15:07.798Z,925.61
2017-10-28T05:15:35.724Z,925.65
2017-10-28T05:16:03.714Z,925.64
2017-10-28T05:16:31.731Z,925.62
2017-10-28T05:16:59.872Z,925.6
2017-10-28T05:17:27.895Z,925.64
2017-10-28T05:17:56.020Z,925.65
2017-10-28T05:18:24.062Z,925.67
2017-10-28T05:18:52.070Z,925.69
2017-10-28T05:19:20.195Z,925.64
2017-10-28T05:19:48.235Z,925.64
2017-10-28T05:20:16.226Z,925.66
2017-10-28T05:20:44.244Z,925.61
2017-10-28T05:21:12.268Z,925.66
2017-10-28T05:21:40.408Z,925.66
2017-10-28T05:22:08.406Z,925.67
2017-10-28T05:22:36.343Z,925.54
2017-10-28T05:23:04.385Z,925.62
2017-10-28T05:23:32.192Z,925.67
2017-10-28T05:24:00.116Z,925.64
2017-10-28T05:24:28.128Z,925.75
2017-10-28T05:24:55.952Z,925.74
2017-10-28T05:25:24.064Z,925.7
2017-10-28T05:25:52.007Z,925.72
2017-10-28T05:26:19.918Z,925.71
2017-10-28T05:26:47.950Z,925.7
2017-10-28T05:27:15.891Z,925.72
2017-10-28T05:27:44.005Z,925.78
2017-10-28T05:28:12.015Z,925.8
2017-10-28T05:28:40.033Z,925.79
2017-10-28T05:29:08.136Z,925.83
2017-10-28T05:29:36.156Z,925.94
2017-10-28T05:30:04.072Z,925.83
2017-10-28T05:30:31.991Z,925.82
2017-10-28T05:31:00.045Z,925.83
2017-10-28T05:31:27.995Z,925.87
2017-10-28T05:31:55.789Z,925.69
2017-10-28T05:32:23.794Z,925.84
2017-10-28T05:32:51.713Z,925.78
2017-10-28T05:33:19.625Z,925.78
2017-10-28T05:33:47.730Z,925.78
2017-10-28T05:34:15.865Z,925.82
2017-10-28T05:34:43.988Z,925.78
2017-10-28T05:35:12.021Z,925.8
2017-10-28T05:35:40.016Z,925.81
2017-10-28T05:36:08.120Z,925.88
2017-10-28T05:36:36.225Z,925.85
2017-10-28T05:37:04.244Z,925.85
2017-10-28T05:37:32.261Z,925.88
2017-10-28T05:38:00.175Z,925.87
2017-10-28T05:38:28.179Z,925.92
2017-10-28T05:38:56.286Z,925.93
2017-10-28T05:39:24.408Z,925.73
2017-10-28T05:39:52.509Z,925.89
2017-10-28T05:40:20.414Z,925.83
2017-10-28T05:40:48.358Z,925.89
2017-10-28T05:41:16.356Z,925.83
2017-10-28T05:41:44.382Z,925.81
2017-10-28T05:42:12.404Z,925.87
2017-10-28T05:42:40.533Z,925.89
2017-10-28T05:43:08.428Z,925.84
2017-10-28T05:43:36.346Z,925.81
2017-10-28T05:44:04.393Z,925.85
2017-10-28T05:44:32.417Z,925.81
2017-10-28T05:45:00.435Z,925.78
2017-10-28T05:45:28.437Z,925.8
2017-10-28T05:45:56.445Z,925.8
2017-10-28T05:46:24.432Z,925.87
2017-10-28T05:46:52.438Z,925.82
2017-10-28T05:47:20.556Z,925.86
2017-10-28T05:47:48.499Z,925.8
2017-10-28T05:48:16.602Z,925.92
2017-10-28T05:48:44.697Z,925.93
2017-10-28T05:49:12.803Z,925.95
2017-10-28T05:49:40.927Z,925.96
2017-10-28T05:50:08.943Z,926
2017-10-28T05:50:37.048Z,926.01
2017-10-28T05:51:04.953Z,925.99
2017-10-28T05:51:33.750Z,926.07
2017-10-28T05:52:01.850Z,925.97
2017-10-28T05:52:29.981Z,925.96
2017-10-28T05:52:58.099Z,926.01